createdAt,value
2022-09-26T00:00:48.469Z,11.36
2022-09-26T00:05:50.605Z,10.79
2022-09-26T00:10:58.414Z,11.07
2022-09-26T00:16:00.554Z,10.99
2022-09-26T00:21:10.979Z,10.56
2022-09-26T00:26:15.013Z,9.76
2022-09-26T00:31:25.070Z,9.73
2022-09-26T00:36:37.643Z,9.76
2022-09-26T00:41:41.267Z,9.94
2022-09-26T00:46:48.267Z,10.44
2022-09-26T00:51:58.868Z,10.90
2022-09-26T00:57:06.672Z,11.00
2022-09-26T01:02:10.339Z,11.05
2022-09-26T01:07:18.149Z,11.08
2022-09-26T01:12:22.252Z,10.80
2022-09-26T01:17:25.386Z,11.22
2022-09-26T01:22:31.189Z,10.66
2022-09-26T01:27:45.579Z,10.25
2022-09-26T01:33:07.938Z,10.39
2022-09-26T01:38:59.493Z,10.51
2022-09-26T01:44:23.064Z,10.32
2022-09-26T01:49:35.109Z,10.25
2022-09-26T01:54:43.161Z,10.58
2022-09-26T01:59:55.294Z,10.53
2022-09-26T02:05:03.238Z,10.23
2022-09-26T02:10:14.964Z,10.22
2022-09-26T02:15:20.544Z,10.29
2022-09-26T02:20:30.983Z,9.82
2022-09-26T02:25:34.538Z,9.71
2022-09-26T02:30:40.674Z,9.43
2022-09-26T02:35:55.932Z,9.56
2022-09-26T02:41:18.864Z,9.96
2022-09-26T02:46:40.485Z,9.95
2022-09-26T02:51:50.181Z,9.74
2022-09-26T02:57:09.152Z,10.22
2022-09-26T03:02:23.158Z,9.96
2022-09-26T03:08:15.413Z,10.00
2022-09-26T03:13:20.429Z,10.18
2022-09-26T03:18:28.633Z,9.33
2022-09-26T03:23:30.985Z,10.07
2022-09-26T03:28:38.289Z,10.13
2022-09-26T03:33:41.021Z,9.81
2022-09-26T03:38:43.423Z,9.72
2022-09-26T03:44:03.191Z,10.29
2022-09-26T03:49:25.304Z,10.27
2022-09-26T03:54:27.887Z,10.46
2022-09-26T03:59:30.200Z,10.73
2022-09-26T04:04:33.366Z,10.94
2022-09-26T04:09:35.784Z,10.71
2022-09-26T04:14:38.233Z,10.82
2022-09-26T04:19:40.587Z,10.62
2022-09-26T04:24:42.754Z,10.39
2022-09-26T04:29:45.352Z,9.96
2022-09-26T04:35:01.915Z,10.04
2022-09-26T04:40:04.830Z,10.53
2022-09-26T04:45:11.114Z,10.03
2022-09-26T04:50:13.527Z,9.92
2022-09-26T04:55:16.923Z,10.57
2022-09-26T05:00:19.154Z,10.57
2022-09-26T05:05:21.461Z,10.21
2022-09-26T05:10:23.762Z,10.63
2022-09-26T05:15:31.345Z,9.18
2022-09-26T05:20:38.322Z,10.37
2022-09-26T05:26:00.566Z,10.56
2022-09-26T05:31:03.644Z,10.52
2022-09-26T05:36:08.467Z,9.92
2022-09-26T05:41:11.258Z,9.70
2022-09-26T05:46:15.378Z,10.62
2022-09-26T05:51:23.539Z,10.48
2022-09-26T05:56:25.980Z,10.93
2022-09-26T06:01:58.335Z,11.08
2022-09-26T06:07:15.331Z,11.17
2022-09-26T06:12:19.694Z,11.45
2022-09-26T06:17:21.870Z,11.26
2022-09-26T06:22:24.648Z,11.61
2022-09-26T06:27:26.904Z,11.71
2022-09-26T06:32:29.367Z,11.73
2022-09-26T06:38:07.261Z,11.69
2022-09-26T06:43:10.223Z,11.60
2022-09-26T06:48:44.615Z,11.69
2022-09-26T06:54:05.226Z,11.77
2022-09-26T06:59:07.761Z,12.18
2022-09-26T07:04:15.838Z,11.98
2022-09-26T07:09:21.311Z,12.14
2022-09-26T07:14:31.682Z,12.47
2022-09-26T07:19:40.693Z,8.84
2022-09-26T07:24:50.287Z,7.17
2022-09-26T07:29:52.875Z,9.25
2022-09-26T07:34:56.465Z,9.13
2022-09-26T07:40:01.611Z,9.25
2022-09-26T07:45:29.101Z,10.87
2022-09-26T07:50:28.789Z,9.86
2022-09-26T07:55:59.730Z,10.81
2022-09-26T08:01:17.253Z,10.19
2022-09-26T08:06:42.215Z,8.38
2022-09-26T08:11:45.250Z,5.51
2022-09-26T08:17:02.090Z,5.35
2022-09-26T08:22:07.733Z,4.81
2022-09-26T08:27:10.302Z,5.83
2022-09-26T08:32:18.245Z,5.57
2022-09-26T08:37:21.158Z,7.89
2022-09-26T08:43:02.719Z,10.23
2022-09-26T08:49:03.028Z,8.59
2022-09-26T08:54:15.087Z,9.04
2022-09-26T08:59:39.983Z,7.85
2022-09-26T09:04:54.158Z,6.82
2022-09-26T09:10:03.229Z,7.64
2022-09-26T09:15:55.667Z,10.00
2022-09-26T09:21:26.606Z,7.96
2022-09-26T09:32:23.785Z,8.96
2022-09-26T09:37:49.810Z,7.36
2022-09-26T09:43:06.589Z,6.35
2022-09-26T09:48:12.315Z,6.48
2022-09-26T09:53:14.625Z,8.67
2022-09-26T09:59:12.488Z,10.52
2022-09-26T10:04:50.104Z,8.56
2022-09-26T10:09:53.449Z,7.92
2022-09-26T10:15:27.697Z,6.31
2022-09-26T10:20:54.709Z,8.22
2022-09-26T10:26:04.397Z,6.22
2022-09-26T10:31:12.966Z,7.71
2022-09-26T10:36:42.519Z,8.99
2022-09-26T10:41:47.176Z,6.81
2022-09-26T10:46:56.616Z,8.46
2022-09-26T10:52:38.680Z,8.15
2022-09-26T10:57:54.276Z,9.13
2022-09-26T11:02:58.145Z,11.66
2022-09-26T11:08:05.615Z,9.60
2022-09-26T11:13:18.419Z,9.80
2022-09-26T11:18:53.975Z,8.36
2022-09-26T11:24:05.190Z,10.82
2022-09-26T11:29:49.780Z,10.84
2022-09-26T11:35:02.587Z,12.45
2022-09-26T11:40:40.454Z,11.62
2022-09-26T11:45:57.991Z,9.35
2022-09-26T11:51:33.322Z,8.34
2022-09-26T11:56:54.224Z,9.21
2022-09-26T12:02:34.498Z,11.87
2022-09-26T12:07:59.106Z,13.12
2022-09-26T12:13:17.307Z,12.30
2022-09-26T12:18:43.689Z,7.57
2022-09-26T12:23:49.182Z,8.07
2022-09-26T12:29:09.585Z,12.32
2022-09-26T12:34:26.001Z,11.12
2022-09-26T12:39:47.464Z,10.94
2022-09-26T12:45:26.961Z,9.60
2022-09-26T12:50:40.997Z,11.92
2022-09-26T12:55:43.921Z,10.72
2022-09-26T13:01:12.137Z,8.74
2022-09-26T13:06:25.682Z,8.41
2022-09-26T13:11:45.868Z,12.40
2022-09-26T13:17:06.044Z,13.20
2022-09-26T13:22:13.929Z,12.68
2022-09-26T13:27:22.249Z,13.00
2022-09-26T13:32:34.944Z,11.54
2022-09-26T13:37:56.635Z,11.98
2022-09-26T13:43:10.630Z,10.18
2022-09-26T13:48:46.548Z,13.54
2022-09-26T13:54:05.347Z,10.53
2022-09-26T13:59:18.039Z,14.07
2022-09-26T14:04:36.029Z,11.52
2022-09-26T14:09:52.902Z,12.58
2022-09-26T14:15:16.228Z,12.41
2022-09-26T14:20:31.722Z,9.99
2022-09-26T14:25:45.937Z,11.12
2022-09-26T14:31:11.324Z,10.72
2022-09-26T14:36:35.405Z,10.38
2022-09-26T14:41:41.658Z,9.37
2022-09-26T14:46:44.444Z,10.57
2022-09-26T14:51:49.469Z,12.45
2022-09-26T14:57:00.357Z,12.35
2022-09-26T15:02:15.204Z,13.47
2022-09-26T15:07:22.983Z,14.57
2022-09-26T15:12:39.300Z,12.75
2022-09-26T15:17:48.799Z,14.00
2022-09-26T15:22:54.063Z,12.49
2022-09-26T15:27:56.738Z,14.02
2022-09-26T15:33:04.351Z,14.41
2022-09-26T15:38:13.195Z,15.22
2022-09-26T15:43:22.477Z,15.57
2022-09-26T15:48:29.166Z,16.15
2022-09-26T15:53:40.341Z,16.25
2022-09-26T15:58:48.449Z,16.71
2022-09-26T16:04:02.447Z,16.55
2022-09-26T16:09:13.691Z,16.43
2022-09-26T16:14:46.559Z,16.09
2022-09-26T16:19:53.090Z,16.30
2022-09-26T16:25:21.145Z,16.15
2022-09-26T16:30:27.829Z,16.16
2022-09-26T16:35:33.663Z,16.06
2022-09-26T16:40:36.408Z,15.87
2022-09-26T16:45:51.258Z,15.28
2022-09-26T16:51:31.335Z,15.28
2022-09-26T16:56:38.786Z,14.93
2022-09-26T17:01:56.293Z,15.02
2022-09-26T17:07:10.737Z,15.14
2022-09-26T17:12:20.499Z,15.05
2022-09-26T17:17:25.811Z,14.76
2022-09-26T17:22:28.689Z,14.13
2022-09-26T17:27:38.530Z,14.11
2022-09-26T17:32:44.237Z,13.47
2022-09-26T17:37:46.327Z,13.75
2022-09-26T17:42:48.842Z,13.73
2022-09-26T17:47:59.779Z,13.70
2022-09-26T17:53:02.771Z,12.78
2022-09-26T17:58:10.322Z,13.41
2022-09-26T18:03:21.408Z,13.30
2022-09-26T18:08:33.838Z,13.63
2022-09-26T18:13:39.497Z,12.73
2022-09-26T18:18:41.598Z,13.19
2022-09-26T18:23:49.704Z,12.47
2022-09-26T18:28:52.111Z,13.12
2022-09-26T18:33:56.101Z,13.05
2022-09-26T18:38:58.579Z,13.26
2022-09-26T18:44:02.887Z,13.27
2022-09-26T18:49:06.449Z,12.75
2022-09-26T18:54:14.974Z,12.85
2022-09-26T18:59:17.360Z,12.37
2022-09-26T19:04:22.347Z,12.61
2022-09-26T19:09:34.080Z,12.55
2022-09-26T19:14:41.541Z,13.07
2022-09-26T19:19:43.598Z,12.21
2022-09-26T19:24:47.937Z,12.69
2022-09-26T19:30:14.245Z,12.14
2022-09-26T19:35:32.449Z,11.78
2022-09-26T19:40:34.968Z,12.18
2022-09-26T19:45:38.606Z,12.02
2022-09-26T19:50:41.664Z,12.36
2022-09-26T19:55:44.384Z,12.13
2022-09-26T20:00:53.059Z,12.20
2022-09-26T20:05:55.249Z,11.44
2022-09-26T20:10:57.893Z,11.91
2022-09-26T20:16:00.023Z,11.45
2022-09-26T20:21:02.596Z,11.22
2022-09-26T20:26:08.549Z,11.54
2022-09-26T20:31:24.509Z,8.64
2022-09-26T20:36:32.296Z,10.07
2022-09-26T20:41:38.773Z,7.30
2022-09-26T20:46:50.657Z,8.59
2022-09-26T20:51:53.607Z,7.65
2022-09-26T20:56:57.643Z,7.56
2022-09-26T21:02:01.565Z,6.57
2022-09-26T21:07:03.712Z,6.95
2022-09-26T21:12:15.007Z,5.01
2022-09-26T21:17:27.017Z,6.64
2022-09-26T21:22:29.678Z,5.73
2022-09-26T21:27:31.774Z,6.28
2022-09-26T21:32:34.671Z,7.73
2022-09-26T21:37:36.880Z,7.37
2022-09-26T21:42:41.504Z,6.21
2022-09-26T21:47:43.790Z,5.92
2022-09-26T21:52:51.101Z,8.07
2022-09-26T21:57:55.492Z,9.82
2022-09-26T22:03:00.974Z,10.54
2022-09-26T22:08:03.788Z,11.28
2022-09-26T22:13:06.058Z,11.38
2022-09-26T22:18:08.145Z,11.76
2022-09-26T22:23:10.389Z,8.42
2022-09-26T22:28:12.490Z,8.28
2022-09-26T22:33:14.874Z,9.31
2022-09-26T22:38:18.314Z,8.93
2022-09-26T22:43:21.292Z,8.78
2022-09-26T22:48:23.745Z,8.91
2022-09-26T22:53:26.022Z,10.19
2022-09-26T22:58:28.203Z,9.91
2022-09-26T23:03:30.380Z,9.70
2022-09-26T23:08:34.306Z,8.68
2022-09-26T23:13:36.499Z,8.23
2022-09-26T23:18:40.864Z,8.52
2022-09-26T23:23:45.305Z,9.21
2022-09-26T23:28:47.569Z,8.16
2022-09-26T23:33:49.818Z,8.24
2022-09-26T23:38:52.182Z,8.20
2022-09-26T23:43:54.272Z,7.74
2022-09-26T23:48:56.413Z,6.27
2022-09-26T23:53:58.615Z,6.08
2022-09-26T23:59:00.809Z,6.78
